createdAt,value
2018-06-15T00:00:57.218Z,100310.64
2018-06-15T00:03:39.518Z,100309.27
2018-06-15T00:06:06.410Z,100302.96
2018-06-15T00:08:34.310Z,100299.20
2018-06-15T00:11:07.206Z,100304.94
2018-06-15T00:13:34.969Z,100302.20
2018-06-15T00:16:02.796Z,100307.37
2018-06-15T00:18:30.334Z,100308.84
2018-06-15T00:21:05.098Z,100310.19
2018-06-15T00:23:38.386Z,100309.98
2018-06-15T00:26:05.322Z,100307.16
2018-06-15T00:28:33.291Z,100310.24
2018-06-15T00:31:03.853Z,100311.80
2018-06-15T00:33:30.817Z,100314.00
2018-06-15T00:35:57.757Z,100313.05
2018-06-15T00:38:24.730Z,100314.44
2018-06-15T00:40:51.670Z,100309.06
2018-06-15T00:43:20.378Z,100311.42
2018-06-15T00:45:53.510Z,100306.05
2018-06-15T00:48:21.382Z,100304.23
2018-06-15T00:50:49.330Z,100304.10
2018-06-15T00:53:16.794Z,100302.60
2018-06-15T00:55:43.720Z,100298.11
2018-06-15T00:58:10.603Z,100303.86
2018-06-15T01:00:37.452Z,100303.36
2018-06-15T01:03:05.359Z,100291.91
2018-06-15T01:05:32.327Z,100289.61
2018-06-15T01:08:02.264Z,100291.86
2018-06-15T01:10:32.251Z,100297.24
2018-06-15T01:13:06.371Z,100294.80
2018-06-15T01:15:34.358Z,100293.41
2018-06-15T01:18:02.076Z,100289.80
2018-06-15T01:20:30.848Z,100293.85
2018-06-15T01:22:57.854Z,100294.67
2018-06-15T01:25:24.769Z,100288.55
2018-06-15T01:27:51.746Z,100286.04
2018-06-15T01:30:18.594Z,100284.92
2018-06-15T01:32:45.498Z,100280.91
2018-06-15T01:35:12.511Z,100283.92
2018-06-15T01:37:40.365Z,100283.54
2018-06-15T01:40:08.982Z,100283.78
2018-06-15T01:42:39.818Z,100284.28
2018-06-15T01:45:06.795Z,100278.84
2018-06-15T01:47:33.769Z,100278.97
2018-06-15T01:50:03.647Z,100281.45
2018-06-15T01:52:31.332Z,100274.52
2018-06-15T01:54:59.313Z,100275.55
2018-06-15T01:57:26.901Z,100264.72
2018-06-15T01:59:56.174Z,100267.50
2018-06-15T02:02:25.842Z,100263.89
2018-06-15T02:04:52.747Z,100257.61
2018-06-15T02:07:21.363Z,100262.74
2018-06-15T02:09:48.807Z,100260.92
2018-06-15T02:12:15.686Z,100265.98
2018-06-15T02:14:45.594Z,100261.91
2018-06-15T02:17:18.720Z,100265.81
2018-06-15T02:19:46.391Z,100262.53
2018-06-15T02:22:13.347Z,100262.69
2018-06-15T02:24:42.874Z,100265.03
2018-06-15T02:27:09.835Z,100260.83
2018-06-15T02:29:36.830Z,100261.67
2018-06-15T02:32:03.743Z,100266.06
2018-06-15T02:34:32.375Z,100260.69
2018-06-15T02:37:00.961Z,100266.91
2018-06-15T02:39:28.915Z,100261.23
2018-06-15T02:41:56.374Z,100263.69
2018-06-15T02:44:24.879Z,100262.88
2018-06-15T02:46:51.815Z,100263.42
2018-06-15T02:49:22.939Z,100267.16
2018-06-15T02:51:50.856Z,100273.92
2018-06-15T02:54:17.731Z,100274.63
2018-06-15T02:56:44.723Z,100274.39
2018-06-15T02:59:15.630Z,100278.02
2018-06-15T03:01:42.574Z,100278.64
2018-06-15T03:04:10.571Z,100281.13
2018-06-15T03:06:39.474Z,100287.52
2018-06-15T03:09:20.160Z,100286.33
2018-06-15T03:11:47.930Z,100282.80
2018-06-15T03:14:14.875Z,100282.62
2018-06-15T03:16:42.860Z,100286.70
2018-06-15T03:19:09.822Z,100289.19
2018-06-15T03:21:36.751Z,100287.69
2018-06-15T03:24:03.674Z,100284.59
2018-06-15T03:26:32.434Z,100279.72
2018-06-15T03:29:05.443Z,100296.30
2018-06-15T03:31:32.388Z,100290.34
2018-06-15T03:33:59.354Z,100290.98
2018-06-15T03:36:26.455Z,100285.83
2018-06-15T03:38:53.333Z,100288.98
2018-06-15T03:41:21.362Z,100290.50
2018-06-15T03:43:51.277Z,100288.35
2018-06-15T03:46:20.831Z,100286.09
2018-06-15T03:48:47.782Z,100286.72
2018-06-15T03:51:15.395Z,100288.67
2018-06-15T03:53:42.854Z,100289.60
2018-06-15T03:56:16.115Z,100290.98
2018-06-15T03:58:43.829Z,100292.59
2018-06-15T04:01:10.702Z,100289.50
2018-06-15T04:03:40.446Z,100285.80
2018-06-15T04:06:07.894Z,100289.68
2018-06-15T04:08:38.466Z,100285.85
2018-06-15T04:11:05.931Z,100291.14
2018-06-15T04:13:39.043Z,100284.80
2018-06-15T04:16:06.033Z,100290.42
2018-06-15T04:18:32.934Z,100287.58
2018-06-15T04:20:59.944Z,100283.63
2018-06-15T04:23:28.504Z,100287.73
2018-06-15T04:25:58.447Z,100288.33
2018-06-15T04:28:25.870Z,100289.45
2018-06-15T04:30:58.826Z,100286.30
2018-06-15T04:33:27.491Z,100289.15
2018-06-15T04:35:55.475Z,100289.95
2018-06-15T04:38:22.894Z,100284.98
2018-06-15T04:40:49.792Z,100286.64
2018-06-15T04:43:17.446Z,100289.48
2018-06-15T04:45:44.427Z,100290.10
2018-06-15T04:48:11.391Z,100295.42
2018-06-15T04:50:39.355Z,100295.66
2018-06-15T04:53:09.944Z,100295.61
2018-06-15T04:55:38.363Z,100294.25
2018-06-15T04:58:05.347Z,100288.48
2018-06-15T05:00:33.334Z,100285.55
2018-06-15T05:03:00.960Z,100291.09
2018-06-15T05:05:29.901Z,100288.66
2018-06-15T05:07:59.855Z,100282.45
2018-06-15T05:10:29.770Z,100281.55
2018-06-15T05:12:56.731Z,100283.48
2018-06-15T05:15:24.662Z,100286.61
2018-06-15T05:17:52.478Z,100287.23
2018-06-15T05:20:20.366Z,100290.47
2018-06-15T05:22:47.309Z,100293.17
2018-06-15T05:25:14.238Z,100285.41
2018-06-15T05:27:41.921Z,100291.66
2018-06-15T05:30:09.929Z,100296.17
2018-06-15T05:32:41.798Z,100301.58
2018-06-15T05:35:13.799Z,100295.41
2018-06-15T05:37:43.707Z,100296.57
2018-06-15T05:40:13.986Z,100302.05
2018-06-15T05:42:40.983Z,100301.87
2018-06-15T05:45:09.513Z,100296.22
2018-06-15T05:47:37.995Z,100300.64
2018-06-15T05:50:11.075Z,100293.70
2018-06-15T05:52:38.965Z,100293.63
2018-06-15T05:55:07.478Z,100294.05
2018-06-15T05:57:37.418Z,100294.37
2018-06-15T06:00:05.983Z,100299.31
2018-06-15T06:02:37.483Z,100300.59
2018-06-15T06:05:12.918Z,100301.64
2018-06-15T06:07:41.503Z,100298.84
2018-06-15T06:10:09.941Z,100309.52
2018-06-15T06:12:39.895Z,100311.59
2018-06-15T06:15:09.858Z,100310.83
2018-06-15T06:17:47.129Z,100314.25
2018-06-15T06:20:15.963Z,100309.24
2018-06-15T06:22:42.930Z,100315.66
2018-06-15T06:25:12.857Z,100320.41
2018-06-15T06:27:43.482Z,100319.23
2018-06-15T06:30:10.948Z,100317.95
2018-06-15T06:32:37.943Z,100321.45
2018-06-15T06:35:06.931Z,100322.45
2018-06-15T06:37:37.279Z,100321.27
2018-06-15T06:40:04.187Z,100322.00
2018-06-15T06:42:31.989Z,100331.16
2018-06-15T06:45:00.451Z,100334.77
2018-06-15T06:47:28.042Z,100329.25
2018-06-15T06:49:57.078Z,100330.42
2018-06-15T06:52:25.047Z,100329.70
2018-06-15T06:54:54.939Z,100331.53
2018-06-15T06:57:24.891Z,100332.42
2018-06-15T06:59:52.481Z,100325.13
2018-06-15T07:02:19.386Z,100328.83
2018-06-15T07:04:46.251Z,100332.44
2018-06-15T07:07:13.202Z,100341.87
2018-06-15T07:09:40.102Z,100346.48
2018-06-15T07:12:07.971Z,100347.05
2018-06-15T07:14:36.573Z,100345.77
2018-06-15T07:17:04.198Z,100347.27
2018-06-15T07:19:35.802Z,100345.53
2018-06-15T07:22:03.749Z,100350.80
2018-06-15T07:24:32.450Z,100353.70
2018-06-15T07:27:01.155Z,100355.02
2018-06-15T07:29:29.039Z,100358.09
2018-06-15T07:31:56.546Z,100352.98
2018-06-15T07:34:23.999Z,100351.88
2018-06-15T07:36:51.586Z,100355.59
2018-06-15T07:39:20.074Z,100356.22
2018-06-15T07:41:47.049Z,100356.56
2018-06-15T07:44:13.995Z,100355.59
2018-06-15T07:46:40.977Z,100356.90
2018-06-15T07:49:07.862Z,100366.28
2018-06-15T07:51:35.586Z,100361.58
2018-06-15T07:54:04.570Z,100360.09
2018-06-15T07:56:31.502Z,100362.39
2018-06-15T07:58:58.486Z,100356.84
2018-06-15T08:01:26.487Z,100357.06
2018-06-15T08:04:02.306Z,100352.10
2018-06-15T08:06:29.455Z,100347.81
2018-06-15T08:08:56.290Z,100348.27
2018-06-15T08:11:30.539Z,100345.20
2018-06-15T08:13:58.457Z,100337.80
2018-06-15T08:16:25.415Z,100336.55
2018-06-15T08:18:52.622Z,100338.56
2018-06-15T08:21:19.550Z,100344.56
2018-06-15T08:23:46.910Z,100332.73
2018-06-15T08:26:13.904Z,100335.02
2018-06-15T08:28:40.829Z,100338.25
2018-06-15T08:31:08.626Z,100342.69
2018-06-15T08:33:35.559Z,100338.83
2018-06-15T08:36:03.449Z,100338.31
2018-06-15T08:38:30.368Z,100331.39
2018-06-15T08:40:57.380Z,100328.08
2018-06-15T08:43:24.986Z,100331.14
2018-06-15T08:45:52.486Z,100337.27
2018-06-15T08:48:20.074Z,100329.01
2018-06-15T08:50:47.023Z,100326.45
2018-06-15T08:53:13.965Z,100322.80
2018-06-15T08:55:42.998Z,100329.56
2018-06-15T08:58:12.620Z,100326.91
2018-06-15T09:00:39.575Z,100321.26
2018-06-15T09:03:08.578Z,100323.75
2018-06-15T09:05:38.470Z,100318.02
2018-06-15T09:08:06.419Z,100315.78
2018-06-15T09:10:34.370Z,100313.12
2018-06-15T09:13:04.377Z,100319.06
2018-06-15T09:15:31.358Z,100314.92
2018-06-15T09:18:03.075Z,100308.36
2018-06-15T09:20:29.974Z,100308.75
2018-06-15T09:22:57.686Z,100312.62
2018-06-15T09:25:24.563Z,100311.09
2018-06-15T09:27:51.468Z,100306.81
2018-06-15T09:30:19.146Z,100309.73
2018-06-15T09:32:46.115Z,100307.23
2018-06-15T09:35:14.086Z,100308.34
2018-06-15T09:37:41.149Z,100308.28
2018-06-15T09:40:08.223Z,100308.95
2018-06-15T09:42:37.121Z,100311.84
2018-06-15T09:45:04.113Z,100311.25
2018-06-15T09:47:31.198Z,100307.20
2018-06-15T09:49:59.114Z,100306.65
2018-06-15T09:52:26.063Z,100313.28
2018-06-15T09:54:54.598Z,100304.56
2018-06-15T09:57:26.091Z,100300.66
2018-06-15T09:59:54.587Z,100308.34
2018-06-15T10:02:21.606Z,100305.90
2018-06-15T10:04:50.153Z,100302.30
2018-06-15T10:07:17.658Z,100304.78
2018-06-15T10:09:44.569Z,100303.80
2018-06-15T10:12:11.551Z,100310.53
2018-06-15T10:14:41.134Z,100312.45
2018-06-15T10:17:08.642Z,100311.45
2018-06-15T10:19:35.606Z,100299.35
2018-06-15T10:22:03.345Z,100303.23
2018-06-15T10:24:30.298Z,100302.93
2018-06-15T10:27:02.618Z,100306.51
2018-06-15T10:29:32.371Z,100305.36
2018-06-15T10:31:59.263Z,100305.73
2018-06-15T10:34:27.178Z,100303.66
2018-06-15T10:36:54.134Z,100304.33
2018-06-15T10:39:21.125Z,100302.52
2018-06-15T10:41:48.238Z,100304.83
2018-06-15T10:44:15.202Z,100304.91
2018-06-15T10:46:42.158Z,100306.87
2018-06-15T10:49:10.141Z,100299.41
2018-06-15T10:51:37.610Z,100299.07
2018-06-15T10:54:04.558Z,100296.70
2018-06-15T10:56:35.114Z,100306.02
2018-06-15T10:59:04.775Z,100302.55
2018-06-15T11:01:31.710Z,100296.08
2018-06-15T11:03:58.681Z,100297.64
2018-06-15T11:06:30.119Z,100300.81
2018-06-15T11:08:57.724Z,100293.68
2018-06-15T11:11:24.634Z,100288.89
2018-06-15T11:13:51.584Z,100284.84
2018-06-15T11:16:18.463Z,100286.83
2018-06-15T11:18:45.414Z,100292.42
2018-06-15T11:21:13.226Z,100289.97
2018-06-15T11:23:40.658Z,100286.77
2018-06-15T11:26:08.134Z,100287.24
2018-06-15T11:28:36.147Z,100284.48
2018-06-15T11:31:03.669Z,100282.47
2018-06-15T11:33:32.162Z,100280.24
2018-06-15T11:35:59.220Z,100281.49
2018-06-15T11:38:26.710Z,100286.52
2018-06-15T11:40:54.205Z,100280.34
2018-06-15T11:43:22.662Z,100279.94
2018-06-15T11:45:49.639Z,100283.88
2018-06-15T11:48:18.178Z,100284.65
2018-06-15T11:50:46.231Z,100284.03
2018-06-15T11:53:13.650Z,100280.66
2018-06-15T11:55:40.614Z,100283.33
2018-06-15T11:58:07.567Z,100286.12
2018-06-15T12:00:34.505Z,100288.00
2018-06-15T12:03:01.403Z,100288.70
2018-06-15T12:05:29.170Z,100278.80
2018-06-15T12:07:56.188Z,100281.46
2018-06-15T12:10:23.085Z,100281.67
2018-06-15T12:12:50.022Z,100284.14
2018-06-15T12:15:17.006Z,100280.81
2018-06-15T12:17:43.938Z,100284.85
2018-06-15T12:20:11.029Z,100285.11
2018-06-15T12:22:38.398Z,100279.44
2018-06-15T12:25:06.913Z,100289.27
2018-06-15T12:27:35.598Z,100287.27
2018-06-15T12:30:02.707Z,100284.84
2018-06-15T12:32:29.606Z,100284.16
2018-06-15T12:34:56.554Z,100285.36
2018-06-15T12:37:23.559Z,100281.53
2018-06-15T12:39:50.501Z,100286.61
2018-06-15T12:42:17.466Z,100285.88
2018-06-15T12:44:44.436Z,100287.72
2018-06-15T12:47:11.330Z,100283.23
2018-06-15T12:49:38.310Z,100279.14
2018-06-15T12:52:05.385Z,100275.74
2018-06-15T12:54:33.374Z,100274.19
2018-06-15T12:57:00.382Z,100268.97
2018-06-15T12:59:27.249Z,100275.91
2018-06-15T13:01:54.175Z,100273.28
2018-06-15T13:04:21.162Z,100272.95
2018-06-15T13:06:48.160Z,100274.51
2018-06-15T13:09:15.723Z,100278.10
2018-06-15T13:11:43.248Z,100274.09
2018-06-15T13:14:10.199Z,100271.66
2018-06-15T13:16:37.207Z,100276.12
2018-06-15T13:19:05.768Z,100271.48
2018-06-15T13:21:33.823Z,100272.89
2018-06-15T13:24:00.707Z,100271.82
2018-06-15T13:26:29.235Z,100275.56
2018-06-15T13:28:56.160Z,100273.52
2018-06-15T13:31:24.154Z,100272.66
2018-06-15T13:33:51.102Z,100277.20
2018-06-15T13:36:18.043Z,100269.14
2018-06-15T13:38:45.853Z,100265.09
2018-06-15T13:41:17.139Z,100270.19
2018-06-15T13:43:44.132Z,100266.19
2018-06-15T13:46:14.100Z,100269.48
2018-06-15T13:48:41.123Z,100271.03
2018-06-15T13:51:09.738Z,100269.25
2018-06-15T13:53:38.764Z,100265.52
2018-06-15T13:56:05.730Z,100261.23
2018-06-15T13:58:32.682Z,100258.38
2018-06-15T14:01:00.248Z,100255.48
2018-06-15T14:03:28.030Z,100254.53
2018-06-15T14:05:55.061Z,100260.12
2018-06-15T14:08:26.735Z,100254.40
2018-06-15T14:10:54.351Z,100254.09
2018-06-15T14:13:22.283Z,100249.61
2018-06-15T14:15:49.153Z,100247.08
2018-06-15T14:18:16.123Z,100244.71
2018-06-15T14:20:43.032Z,100243.69
2018-06-15T14:23:14.019Z,100245.73
2018-06-15T14:25:40.978Z,100238.48
2018-06-15T14:28:07.954Z,100241.27
2018-06-15T14:30:36.987Z,100234.27
2018-06-15T14:33:05.771Z,100227.86
2018-06-15T14:35:32.690Z,100228.67
2018-06-15T14:37:59.652Z,100229.47
2018-06-15T14:40:28.672Z,100227.05
2018-06-15T14:42:57.371Z,100228.11
2018-06-15T14:45:25.337Z,100223.89
2018-06-15T14:47:52.432Z,100231.73
2018-06-15T14:50:19.359Z,100220.88
2018-06-15T14:52:47.198Z,100223.70
2018-06-15T14:55:14.786Z,100222.19
2018-06-15T14:57:41.777Z,100218.74
2018-06-15T15:00:09.229Z,100216.38
2018-06-15T15:02:36.243Z,100211.83
2018-06-15T15:05:03.146Z,100209.02
2018-06-15T15:07:30.152Z,100212.77
2018-06-15T15:09:57.083Z,100208.05
2018-06-15T15:12:24.877Z,100209.58
2018-06-15T15:14:51.914Z,100211.69
2018-06-15T15:17:19.842Z,100205.59
2018-06-15T15:19:49.664Z,100208.84
2018-06-15T15:22:17.569Z,100201.06
2018-06-15T15:24:46.302Z,100207.02
2018-06-15T15:27:13.266Z,100213.31
2018-06-15T15:29:40.229Z,100205.03
2018-06-15T15:32:07.195Z,100198.34
2018-06-15T15:34:34.843Z,100199.55
2018-06-15T15:37:01.832Z,100198.36
2018-06-15T15:39:29.730Z,100202.34
2018-06-15T15:41:58.477Z,100194.62
2018-06-15T15:44:26.543Z,100195.18
2018-06-15T15:46:53.535Z,100195.61
2018-06-15T15:49:20.471Z,100190.88
2018-06-15T15:51:48.554Z,100194.75
2018-06-15T15:54:15.528Z,100193.98
2018-06-15T15:56:43.302Z,100194.28
2018-06-15T15:59:10.837Z,100197.98
2018-06-15T16:01:37.830Z,100196.34
2018-06-15T16:04:06.374Z,100197.20
2018-06-15T16:06:33.874Z,100197.42
2018-06-15T16:09:00.859Z,100194.35
2018-06-15T16:11:27.815Z,100189.59
2018-06-15T16:13:55.386Z,100198.53
2018-06-15T16:16:22.439Z,100198.75
2018-06-15T16:18:49.393Z,100200.27
2018-06-15T16:21:16.865Z,100201.85
2018-06-15T16:23:44.334Z,100201.85
2018-06-15T16:26:11.898Z,100199.77
2018-06-15T16:28:38.910Z,100200.73
2018-06-15T16:31:06.279Z,100199.81
2018-06-15T16:33:33.906Z,100198.75
2018-06-15T16:36:03.822Z,100198.38
2018-06-15T16:38:30.779Z,100207.39
2018-06-15T16:41:00.706Z,100200.83
2018-06-15T16:43:28.428Z,100205.73
2018-06-15T16:45:55.347Z,100206.56
2018-06-15T16:48:24.398Z,100209.33
2018-06-15T16:50:51.311Z,100206.66
2018-06-15T16:53:18.866Z,100206.75
2018-06-15T16:55:47.368Z,100205.84
2018-06-15T16:58:14.331Z,100209.92
2018-06-15T17:00:41.334Z,100205.77
2018-06-15T17:03:08.286Z,100204.84
2018-06-15T17:05:38.903Z,100210.55
2018-06-15T17:08:09.839Z,100211.62
2018-06-15T17:10:39.773Z,100212.16
2018-06-15T17:13:07.746Z,100218.83
2018-06-15T17:15:37.667Z,100214.22
2018-06-15T17:18:04.775Z,100212.83
2018-06-15T17:20:31.663Z,100209.72
2018-06-15T17:22:58.642Z,100209.42
2018-06-15T17:25:28.534Z,100212.03
2018-06-15T17:27:57.402Z,100207.92
2018-06-15T17:30:35.538Z,100215.66
2018-06-15T17:33:05.510Z,100206.83
2018-06-15T17:35:33.398Z,100212.45
2018-06-15T17:38:00.872Z,100215.28
2018-06-15T17:40:28.527Z,100211.91
2018-06-15T17:42:55.543Z,100211.04
2018-06-15T17:45:22.391Z,100215.95
2018-06-15T17:47:53.814Z,100213.41
2018-06-15T17:50:21.810Z,100211.17
2018-06-15T17:52:48.750Z,100217.32
2018-06-15T17:55:16.426Z,100213.13
2018-06-15T17:57:43.372Z,100211.66
2018-06-15T18:00:10.868Z,100215.41
2018-06-15T18:02:39.987Z,100212.12
2018-06-15T18:05:07.962Z,100220.60
2018-06-15T18:07:36.422Z,100216.11
2018-06-15T18:10:04.432Z,100222.45
2018-06-15T18:12:34.957Z,100214.66
2018-06-15T18:15:05.442Z,100219.52
2018-06-15T18:17:32.918Z,100216.08
2018-06-15T18:19:59.843Z,100219.28
2018-06-15T18:22:26.804Z,100214.47
2018-06-15T18:24:54.482Z,100215.73
2018-06-15T18:27:21.414Z,100212.34
2018-06-15T18:29:48.363Z,100213.72
2018-06-15T18:32:15.955Z,100209.60
2018-06-15T18:34:42.947Z,100207.11
2018-06-15T18:37:11.928Z,100210.83
2018-06-15T18:39:40.406Z,100212.37
2018-06-15T18:42:07.374Z,100205.67
2018-06-15T18:44:39.964Z,100207.08
2018-06-15T18:47:08.461Z,100214.17
2018-06-15T18:49:35.914Z,100215.50
2018-06-15T18:52:02.791Z,100219.09
2018-06-15T18:54:31.500Z,100211.55
2018-06-15T18:57:01.398Z,100212.92
2018-06-15T18:59:28.974Z,100217.95
2018-06-15T19:01:55.946Z,100213.84
2018-06-15T19:04:22.910Z,100221.40
2018-06-15T19:06:51.479Z,100217.88
2018-06-15T19:09:19.464Z,100216.97
2018-06-15T19:11:46.939Z,100215.36
2018-06-15T19:14:13.874Z,100216.19
2018-06-15T19:16:40.841Z,100215.81
2018-06-15T19:19:08.444Z,100219.56
2018-06-15T19:21:37.938Z,100219.13
2018-06-15T19:24:05.071Z,100216.70
2018-06-15T19:26:35.123Z,100218.39
2018-06-15T19:29:02.090Z,100218.66
2018-06-15T19:31:30.483Z,100215.44
2018-06-15T19:33:57.953Z,100223.84
2018-06-15T19:36:25.390Z,100224.08
2018-06-15T19:38:56.106Z,100219.94
2018-06-15T19:41:24.982Z,100226.06
2018-06-15T19:43:54.862Z,100225.25
2018-06-15T19:46:27.782Z,100226.48
2018-06-15T19:48:56.462Z,100225.34
2018-06-15T19:51:23.958Z,100223.03
2018-06-15T19:53:50.886Z,100222.64
2018-06-15T19:56:23.866Z,100224.77
2018-06-15T19:58:51.500Z,100225.55
2018-06-15T20:01:18.433Z,100227.31
2018-06-15T20:03:48.069Z,100231.70
2018-06-15T20:06:17.063Z,100229.36
2018-06-15T20:08:45.043Z,100226.42
2018-06-15T20:11:15.506Z,100230.53
2018-06-15T20:13:44.507Z,100230.67
2018-06-15T20:16:11.481Z,100232.41
2018-06-15T20:18:40.106Z,100232.59
2018-06-15T20:21:07.024Z,100232.69
2018-06-15T20:23:34.058Z,100230.44
2018-06-15T20:26:02.979Z,100229.66
2018-06-15T20:28:34.249Z,100234.70
2018-06-15T20:31:02.041Z,100241.27
2018-06-15T20:33:28.947Z,100234.30
2018-06-15T20:35:59.774Z,100237.08
2018-06-15T20:38:28.533Z,100236.19
2018-06-15T20:40:56.217Z,100239.84
2018-06-15T20:43:23.966Z,100242.52
2018-06-15T20:45:50.934Z,100238.34
2018-06-15T20:48:18.497Z,100238.47
2018-06-15T20:50:45.942Z,100245.36
2018-06-15T20:53:19.067Z,100244.58
2018-06-15T20:55:47.561Z,100236.48
2018-06-15T20:58:14.522Z,100238.41
2018-06-15T21:00:45.519Z,100242.05
2018-06-15T21:03:13.502Z,100238.14
2018-06-15T21:05:41.983Z,100242.66
2018-06-15T21:08:22.314Z,100241.45
2018-06-15T21:10:52.243Z,100241.94
2018-06-15T21:13:21.142Z,100240.37
2018-06-15T21:15:48.084Z,100240.73
2018-06-15T21:18:19.966Z,100238.33
2018-06-15T21:20:48.574Z,100238.72
2018-06-15T21:23:17.215Z,100235.28
2018-06-15T21:25:44.130Z,100235.75
2018-06-15T21:28:12.011Z,100236.41
2018-06-15T21:30:45.034Z,100237.12
2018-06-15T21:33:14.507Z,100228.67
2018-06-15T21:35:41.994Z,100228.01
2018-06-15T21:38:14.981Z,100226.91
2018-06-15T21:40:46.526Z,100232.31
2018-06-15T21:43:14.074Z,100233.76
2018-06-15T21:46:07.459Z,100229.17
2018-06-15T21:48:35.081Z,100226.52
2018-06-15T21:51:05.010Z,100219.78
2018-06-15T21:53:32.466Z,100228.98
2018-06-15T21:56:05.583Z,100223.83
2018-06-15T21:58:32.429Z,100225.77
2018-06-15T22:01:00.447Z,100233.34
2018-06-15T22:03:30.372Z,100232.77
2018-06-15T22:05:57.289Z,100237.17
2018-06-15T22:08:25.112Z,100234.67
2018-06-15T22:10:56.550Z,100232.34
2018-06-15T22:13:23.487Z,100236.97
2018-06-15T22:15:50.458Z,100234.03
2018-06-15T22:18:20.490Z,100233.29
2018-06-15T22:20:47.471Z,100233.70
2018-06-15T22:23:24.186Z,100229.33
2018-06-15T22:25:52.108Z,100233.34
2018-06-15T22:28:19.082Z,100236.02
2018-06-15T22:30:46.515Z,100237.45
2018-06-15T22:33:13.410Z,100234.10
2018-06-15T22:35:40.355Z,100243.99
2018-06-15T22:38:08.234Z,100238.77
2018-06-15T22:40:40.003Z,100240.22
2018-06-15T22:43:08.599Z,100239.89
2018-06-15T22:45:38.979Z,100246.20
2018-06-15T22:48:05.898Z,100239.88
2018-06-15T22:50:38.998Z,100244.16
2018-06-15T22:53:08.996Z,100247.58
2018-06-15T22:55:37.618Z,100241.82
2018-06-15T22:58:08.867Z,100246.36
2018-06-15T23:00:36.595Z,100242.10
2018-06-15T23:03:07.106Z,100239.84
2018-06-15T23:05:34.015Z,100240.91
2018-06-15T23:08:01.683Z,100239.17
2018-06-15T23:10:28.586Z,100238.03
2018-06-15T23:13:02.403Z,100235.34
2018-06-15T23:15:32.298Z,100238.97
2018-06-15T23:18:02.222Z,100239.63
2018-06-15T23:20:30.178Z,100235.17
2018-06-15T23:22:59.150Z,100237.61
2018-06-15T23:25:30.098Z,100233.56
2018-06-15T23:27:57.551Z,100230.86
2018-06-15T23:30:26.573Z,100231.05
2018-06-15T23:33:04.883Z,100226.98
2018-06-15T23:35:38.389Z,100231.88
2018-06-15T23:38:05.306Z,100232.88
2018-06-15T23:40:34.292Z,100228.81
2018-06-15T23:43:05.098Z,100227.11
2018-06-15T23:45:35.293Z,100222.81
2018-06-15T23:48:07.050Z,100221.24
2018-06-15T23:50:33.934Z,100218.73
2018-06-15T23:53:02.649Z,100220.32
2018-06-15T23:55:29.594Z,100222.63
2018-06-15T23:58:00.570Z,100218.22
